Time;durP1;ratioP1;P1;durP2;ratioP2;P2;SDS_P1;SDS_P2;PMS_P1;PMS_P2;Temp;Humidity;BMP_temperature;BMP_pressure;BME280_temperature;BME280_humidity;BME280_pressure;Samples;Min_cycle;Max_cycle;Signal;HPM_P1;HPM_P2
2024/04/23 00:01:26;;;;;;;8.23;5.27;;;;;;;1.77;77.97;95646.44;5422269;26;20821;-86
2024/04/23 00:03:51;;;;;;;6.13;5.07;;;;;;;1.79;77.86;95644.59;5428707;26;20284;-86
2024/04/23 00:06:16;;;;;;;6.50;4.93;;;;;;;1.81;77.97;95641.94;5419345;26;20333;-85
2024/04/23 00:08:42;;;;;;;6.47;5.00;;;;;;;1.74;77.89;95638.91;5399852;26;20790;-85
2024/04/23 00:11:07;;;;;;;6.93;6.00;;;;;;;1.75;78.39;95635.44;5397991;26;20239;-85
2024/04/23 00:13:32;;;;;;;9.07;5.00;;;;;;;1.69;77.61;95635.81;5423467;26;20230;-85
2024/04/23 00:15:58;;;;;;;5.60;5.07;;;;;;;1.57;78.37;95633.97;5403934;26;20230;-87
2024/04/23 00:18:23;;;;;;;5.87;4.63;;;;;;;1.59;78.70;95632.97;5435921;26;20286;-86
2024/04/23 00:20:48;;;;;;;7.33;4.80;;;;;;;1.55;78.07;95631.50;5428327;26;20235;-86
2024/04/23 00:23:14;;;;;;;6.63;4.70;;;;;;;1.53;78.39;95620.53;5398854;26;20251;-85
2024/04/23 00:25:40;;;;;;;6.70;5.20;;;;;;;1.52;78.57;95631.69;5426068;26;20238;-87
2024/04/23 00:28:06;;;;;;;6.03;5.00;;;;;;;1.47;78.56;95627.75;5402440;26;20238;-87
2024/04/23 00:30:31;;;;;;;6.20;5.00;;;;;;;1.42;78.83;95630.59;5399027;26;20281;-85
2024/04/23 00:32:56;;;;;;;6.50;4.47;;;;;;;1.38;78.80;95624.00;5394191;26;20282;-86
2024/04/23 00:35:22;;;;;;;8.10;5.47;;;;;;;1.32;78.57;95625.16;5388586;26;20251;-85
2024/04/23 00:37:47;;;;;;;7.80;5.30;;;;;;;1.28;78.17;95628.84;5423867;26;20333;-86
2024/04/23 00:40:12;;;;;;;6.63;5.47;;;;;;;1.23;78.61;95623.16;5404822;26;20774;-86
2024/04/23 00:42:38;;;;;;;6.67;4.60;;;;;;;1.13;78.30;95620.31;5431932;26;20242;-85
2024/04/23 00:45:04;;;;;;;6.77;5.30;;;;;;;1.13;79.08;95617.75;5424228;26;20278;-85
2024/04/23 00:47:30;;;;;;;6.40;5.17;;;;;;;1.11;78.62;95613.63;5430623;26;20354;-85
2024/04/23 00:49:55;;;;;;;7.37;5.03;;;;;;;1.05;78.66;95604.56;5432773;26;20620;-85
2024/04/23 00:52:21;;;;;;;7.07;5.43;;;;;;;1.03;79.20;95608.13;5404849;26;20374;-85
2024/04/23 00:54:47;;;;;;;5.33;4.63;;;;;;;1.01;78.84;95609.97;5439459;26;20299;-85
2024/04/23 00:57:12;;;;;;;6.70;4.80;;;;;;;0.99;78.88;95604.94;5426377;26;20838;-85
2024/04/23 00:59:38;;;;;;;7.50;5.57;;;;;;;0.83;79.67;95597.31;5420298;26;20239;-85
2024/04/23 01:02:03;;;;;;;8.13;5.20;;;;;;;0.93;79.02;95597.63;5440453;26;20277;-85
2024/04/23 01:04:28;;;;;;;6.27;4.83;;;;;;;0.92;79.24;95601.09;5437884;26;20245;-86
2024/04/23 01:06:54;;;;;;;5.63;4.93;;;;;;;0.93;79.33;95591.69;5410822;26;20618;-86
2024/04/23 01:09:19;;;;;;;6.07;5.27;;;;;;;0.89;78.87;95597.91;5407925;26;20251;-87
2024/04/23 01:11:45;;;;;;;6.60;5.40;;;;;;;0.86;78.74;95596.31;5428924;26;20255;-86
2024/04/23 01:14:10;;;;;;;6.83;4.63;;;;;;;0.87;78.67;95597.13;5402854;26;20238;-85
2024/04/23 01:16:38;;;;;;;7.17;4.90;;;;;;;0.89;78.81;95593.59;5439626;26;20242;-84
2024/04/23 01:19:05;;;;;;;6.10;4.87;;;;;;;0.89;78.32;95590.22;5403144;26;20591;-86
2024/04/23 01:21:41;;;;;;;8.03;4.90;;;;;;;0.90;78.20;95586.75;5435033;26;20240;-86
2024/04/23 01:24:11;;;;;;;8.07;5.77;;;;;;;0.89;78.51;95591.06;5436198;26;20284;-87
2024/04/23 01:26:38;;;;;;;9.00;5.87;;;;;;;0.85;78.12;95590.38;5424930;26;20279;-85
2024/04/23 01:29:03;;;;;;;7.73;6.07;;;;;;;0.78;78.38;95585.69;5404138;26;20788;-84
2024/04/23 01:31:28;;;;;;;8.77;6.10;;;;;;;0.75;77.97;95588.44;5398794;26;20270;-85
2024/04/23 01:33:54;;;;;;;8.60;6.20;;;;;;;0.75;78.56;95580.78;5411285;26;20240;-85
2024/04/23 01:36:20;;;;;;;8.37;5.73;;;;;;;0.66;78.40;95579.56;5401524;26;20779;-85
2024/04/23 01:38:46;;;;;;;6.03;5.43;;;;;;;0.68;78.78;95582.03;5428007;26;20325;-87
2024/04/23 01:41:11;;;;;;;9.33;6.07;;;;;;;0.69;78.67;95579.38;5437127;26;20253;-85
2024/04/23 01:43:37;;;;;;;8.67;6.13;;;;;;;0.63;78.28;95579.75;5410148;26;20242;-86
2024/04/23 01:46:03;;;;;;;7.70;6.20;;;;;;;0.64;78.78;95581.38;5428025;26;20240;-84
2024/04/23 01:48:28;;;;;;;8.97;6.17;;;;;;;0.61;78.18;95575.59;5434877;26;20231;-85
2024/04/23 01:50:54;;;;;;;8.77;6.47;;;;;;;0.60;78.53;95579.09;5428733;26;20284;-84
2024/04/23 01:53:19;;;;;;;7.50;6.40;;;;;;;0.54;78.89;95575.16;5428910;26;20240;-84
2024/04/23 01:55:44;;;;;;;8.23;6.30;;;;;;;0.55;79.01;95574.25;5410372;26;20572;-84
2024/04/23 01:58:10;;;;;;;7.93;6.07;;;;;;;0.52;78.75;95579.50;5438196;26;20235;-86
2024/04/23 02:00:36;;;;;;;6.93;6.17;;;;;;;0.50;78.70;95578.78;5396954;26;20270;-84
2024/04/23 02:03:03;;;;;;;8.50;5.80;;;;;;;0.50;78.74;95569.38;5443352;26;20235;-86
2024/04/23 02:05:29;;;;;;;7.20;6.27;;;;;;;0.48;78.45;95576.31;5416208;26;20285;-86
2024/04/23 02:07:55;;;;;;;8.20;5.83;;;;;;;0.42;78.71;95568.97;5430714;26;20761;-86
2024/04/23 02:10:20;;;;;;;8.47;6.13;;;;;;;0.44;78.64;95574.84;5431526;26;20288;-86
2024/04/23 02:12:46;;;;;;;7.77;5.57;;;;;;;0.38;78.68;95564.16;5428729;26;20288;-83
2024/04/23 02:15:11;;;;;;;7.10;5.60;;;;;;;0.39;78.66;95574.28;5443068;26;20233;-83
2024/04/23 02:17:36;;;;;;;7.00;5.33;;;;;;;0.37;78.16;95565.06;5462531;25;20235;-84
2024/04/23 02:20:04;;;;;;;7.77;5.70;;;;;;;0.35;78.87;95559.19;5403147;26;20236;-84
2024/04/23 02:22:29;;;;;;;8.93;6.33;;;;;;;0.32;79.12;95561.91;5445013;25;20232;-84
2024/04/23 02:24:55;;;;;;;8.10;5.57;;;;;;;0.31;78.82;95560.28;5448963;25;20274;-83
2024/04/23 02:27:20;;;;;;;7.73;5.50;;;;;;;0.25;78.99;95561.44;5399958;26;20286;-84
2024/04/23 02:29:45;;;;;;;7.30;5.80;;;;;;;0.26;79.40;95566.44;5403898;26;20243;-85
2024/04/23 02:32:11;;;;;;;8.23;5.87;;;;;;;0.25;78.97;95562.25;5410171;26;20235;-85
2024/04/23 02:34:36;;;;;;;7.53;6.30;;;;;;;0.27;78.83;95568.13;5429846;26;20246;-86
2024/04/23 02:37:01;;;;;;;7.60;5.30;;;;;;;0.25;79.27;95567.34;5402724;26;20235;-84
2024/04/23 02:39:27;;;;;;;8.70;5.87;;;;;;;0.24;79.21;95562.34;5435516;26;20674;-86
2024/04/23 02:41:53;;;;;;;8.27;6.27;;;;;;;0.24;78.73;95563.16;5439792;26;20249;-86
2024/04/23 02:44:18;;;;;;;7.90;5.73;;;;;;;0.22;79.00;95559.88;5430102;26;20239;-86
2024/04/23 02:46:44;;;;;;;7.57;5.57;;;;;;;0.20;79.57;95561.69;5405243;26;20750;-84
2024/04/23 02:49:09;;;;;;;7.13;5.53;;;;;;;0.23;79.07;95566.63;5437706;26;20239;-84
2024/04/23 02:51:34;;;;;;;8.80;5.67;;;;;;;0.23;79.36;95564.06;5424527;26;20241;-85
2024/04/23 02:54:00;;;;;;;8.47;6.20;;;;;;;0.24;79.42;95573.38;5402559;26;20229;-84
2024/04/23 02:56:26;;;;;;;7.63;5.83;;;;;;;0.21;79.96;95565.91;5399669;26;20257;-84
2024/04/23 02:58:51;;;;;;;8.77;6.70;;;;;;;0.23;79.91;95565.81;5436324;26;20728;-83
2024/04/23 03:01:16;;;;;;;7.33;6.00;;;;;;;0.23;79.68;95561.53;5430815;26;20250;-83
2024/04/23 03:03:42;;;;;;;7.17;5.70;;;;;;;0.24;79.59;95555.50;5429167;26;20243;-84
2024/04/23 03:06:07;;;;;;;6.70;5.77;;;;;;;0.21;79.43;95555.69;5431792;26;20238;-85
2024/04/23 03:08:32;;;;;;;7.47;6.10;;;;;;;0.23;79.64;95551.31;5433518;26;20337;-85
2024/04/23 03:10:58;;;;;;;7.67;6.57;;;;;;;0.20;79.71;95545.56;5422435;26;20375;-83
2024/04/23 03:13:23;;;;;;;9.37;6.03;;;;;;;0.22;79.69;95539.44;5441478;26;20674;-85
2024/04/23 03:15:48;;;;;;;7.53;6.07;;;;;;;0.18;80.01;95538.00;5425620;26;20239;-84
2024/04/23 03:18:14;;;;;;;7.23;5.57;;;;;;;0.16;79.21;95539.78;5428542;26;20235;-82
2024/04/23 03:20:39;;;;;;;7.93;5.97;;;;;;;0.11;79.71;95538.41;5434226;26;20236;-84
2024/04/23 03:23:04;;;;;;;9.43;6.50;;;;;;;0.15;80.20;95540.69;5396014;26;20243;-85
2024/04/23 03:25:29;;;;;;;7.57;5.77;;;;;;;0.13;80.09;95534.84;5418430;26;20269;-83
2024/04/23 03:27:55;;;;;;;9.87;7.00;;;;;;;0.18;79.79;95532.88;5431339;26;20293;-84
2024/04/23 03:30:20;;;;;;;8.27;6.13;;;;;;;0.15;79.50;95543.25;5399948;26;20661;-83
2024/04/23 03:32:45;;;;;;;9.43;7.17;;;;;;;0.14;79.58;95533.94;5437169;26;20234;-83
2024/04/23 03:35:11;;;;;;;9.87;7.43;;;;;;;0.11;80.23;95529.00;5435895;26;20735;-84
2024/04/23 03:37:36;;;;;;;9.67;7.13;;;;;;;0.03;80.41;95528.59;5391939;26;20231;-84
2024/04/23 03:40:02;;;;;;;8.43;7.07;;;;;;;0.16;81.26;95526.19;5430027;26;20234;-83
2024/04/23 03:42:27;;;;;;;11.50;7.77;;;;;;;0.14;80.81;95521.16;5403234;26;20250;-83
2024/04/23 03:44:52;;;;;;;9.00;7.23;;;;;;;0.19;80.74;95521.75;5422483;26;20347;-83
2024/04/23 03:47:18;;;;;;;8.03;6.43;;;;;;;0.08;81.79;95534.25;5387955;26;20239;-83
2024/04/23 03:49:44;;;;;;;8.97;6.70;;;;;;;0.19;80.42;95536.25;5429386;26;20235;-83
2024/04/23 03:52:10;;;;;;;9.33;6.77;;;;;;;0.16;81.62;95534.66;5430078;26;20467;-84
2024/04/23 03:54:36;;;;;;;7.97;6.17;;;;;;;0.31;80.88;95532.19;5430781;26;20265;-84
2024/04/23 03:57:01;;;;;;;9.03;6.67;;;;;;;0.25;80.26;95534.16;5396311;26;20243;-84
2024/04/23 03:59:27;;;;;;;8.90;6.53;;;;;;;0.28;80.13;95528.06;5401065;26;20253;-84
2024/04/23 04:06:03;;;;;;;9.03;6.70;;;;;;;0.20;80.12;95528.50;5435008;26;20277;-82
2024/04/23 04:07:21;;;;;;;7.47;6.67;;;;;;;0.14;80.12;95528.84;5437743;26;20675;-82
2024/04/23 04:09:47;;;;;;;11.27;7.33;;;;;;;0.17;80.78;95526.09;5417903;26;20251;-84
2024/04/23 04:12:13;;;;;;;10.77;7.00;;;;;;;0.20;80.29;95523.38;5423889;26;20281;-82
2024/04/23 04:14:38;;;;;;;8.27;6.63;;;;;;;0.16;80.20;95519.34;5433272;26;20241;-82
2024/04/23 04:17:03;;;;;;;8.90;7.10;;;;;;;0.22;80.38;95513.09;5429721;26;20741;-84
2024/04/23 04:19:29;;;;;;;11.77;7.87;;;;;;;0.19;79.80;95518.38;5420092;26;20242;-81
2024/04/23 04:21:56;;;;;;;8.60;7.13;;;;;;;0.22;80.17;95518.19;5413572;26;20238;-80
2024/04/23 04:24:21;;;;;;;8.97;6.87;;;;;;;0.18;79.84;95520.09;5371724;26;20574;-82
2024/04/23 04:26:47;;;;;;;10.00;6.93;;;;;;;0.20;79.48;95514.91;5387943;26;20236;-82
2024/04/23 04:29:12;;;;;;;10.17;7.50;;;;;;;0.18;79.93;95512.44;5399872;26;20230;-84
2024/04/23 04:31:37;;;;;;;9.93;7.37;;;;;;;0.24;79.54;95517.19;5401696;26;20284;-83
2024/04/23 04:34:02;;;;;;;8.33;7.00;;;;;;;0.28;78.93;95517.84;5404892;26;20239;-83
2024/04/23 04:36:28;;;;;;;10.20;7.30;;;;;;;0.38;79.10;95513.06;5386929;26;20241;-83
2024/04/23 04:38:53;;;;;;;9.80;7.40;;;;;;;0.31;78.34;95519.41;5427457;26;20253;-81
2024/04/23 04:41:19;;;;;;;8.70;6.90;;;;;;;0.32;77.80;95523.59;5399843;26;20249;-83
2024/04/23 04:43:44;;;;;;;8.90;6.87;;;;;;;0.40;78.44;95519.72;5403065;26;20251;-83
2024/04/23 04:46:09;;;;;;;10.37;7.30;;;;;;;0.43;78.43;95513.59;5420907;26;20239;-83
2024/04/23 04:48:34;;;;;;;10.60;7.27;;;;;;;0.48;78.60;95519.28;5429891;26;20239;-83
2024/04/23 04:51:00;;;;;;;9.43;7.33;;;;;;;0.52;77.66;95518.19;5415660;26;20237;-83
2024/04/23 04:53:25;;;;;;;8.40;6.77;;;;;;;0.57;77.73;95514.47;5399281;26;20723;-82
2024/04/23 04:55:50;;;;;;;9.40;7.40;;;;;;;0.55;77.26;95515.47;5394427;26;20248;-83
2024/04/23 04:58:16;;;;;;;12.37;8.20;;;;;;;0.64;76.94;95520.06;5430708;26;20247;-82
2024/04/23 05:00:41;;;;;;;12.33;9.23;;;;;;;1.03;75.95;95527.13;5424595;26;20247;-82
2024/04/23 05:03:06;;;;;;;11.67;8.40;;;;;;;2.16;71.68;95515.06;5428880;26;20777;-82
2024/04/23 05:05:32;;;;;;;10.10;7.13;;;;;;;3.29;68.39;95517.06;5425856;26;20740;-83
2024/04/23 05:07:57;;;;;;;8.27;6.53;;;;;;;4.62;61.18;95521.34;5431487;26;20775;-83
2024/04/23 05:10:22;;;;;;;8.87;6.67;;;;;;;4.92;57.47;95523.41;5325811;26;20277;-82
2024/04/23 05:12:48;;;;;;;8.10;6.03;;;;;;;4.49;58.64;95529.13;5353526;26;20731;-83
2024/04/23 05:15:14;;;;;;;7.80;6.23;;;;;;;4.11;59.70;95536.19;5317214;26;20264;-81
2024/04/23 05:17:39;;;;;;;11.97;6.50;;;;;;;3.11;63.62;95531.97;5320381;26;20323;-84
2024/04/23 05:20:07;;;;;;;9.47;5.63;;;;;;;2.47;65.68;95529.31;5322740;26;20241;-84
2024/04/23 05:22:32;;;;;;;10.20;6.93;;;;;;;2.16;67.82;95539.88;5322356;26;20242;-83
2024/04/23 05:24:57;;;;;;;9.63;7.73;;;;;;;2.07;68.73;95543.00;5319726;26;20239;-82
2024/04/23 05:27:23;;;;;;;13.53;8.73;;;;;;;1.89;69.59;95538.13;5325909;26;20269;-82
2024/04/23 05:29:53;;;;;;;9.23;6.90;;;;;;;1.80;70.43;95540.44;5296171;26;20296;-83
2024/04/23 05:35:03;;;;;;;10.33;6.97;;;;;;;1.64;70.71;95543.09;5348298;26;20281;-82
2024/04/23 05:37:29;;;;;;;8.40;6.13;;;;;;;1.40;71.48;95548.78;5322269;26;20254;-83
2024/04/23 05:39:54;;;;;;;7.47;6.57;;;;;;;1.36;72.81;95549.91;5334339;26;20245;-83
2024/04/23 05:42:19;;;;;;;8.37;6.47;;;;;;;1.63;71.16;95552.53;5329362;26;20634;-83
2024/04/23 05:44:45;;;;;;;6.53;5.73;;;;;;;1.37;71.69;95553.28;5326297;26;20242;-82
2024/04/23 05:47:10;;;;;;;8.80;7.10;;;;;;;1.48;72.04;95550.06;5322142;26;20298;-84
2024/04/23 05:50:13;;;;;;;7.70;6.20;;;;;;;1.52;72.01;95548.97;5360501;26;20276;-84
2024/04/23 05:53:16;;;;;;;9.07;6.70;;;;;;;1.75;71.21;95543.25;5329354;26;20229;-84
2024/04/23 05:55:42;;;;;;;6.93;6.07;;;;;;;1.76;70.86;95546.63;5331001;26;20245;-84
2024/04/23 05:58:08;;;;;;;10.77;6.33;;;;;;;1.53;70.90;95553.19;5323984;26;20242;-83
2024/04/23 06:00:34;;;;;;;7.97;6.33;;;;;;;1.75;71.22;95550.94;5359429;26;20277;-84
2024/04/23 06:03:00;;;;;;;6.90;6.00;;;;;;;1.53;71.57;95556.56;5315306;26;20277;-83
2024/04/23 06:05:25;;;;;;;8.93;6.47;;;;;;;1.45;72.08;95552.81;5320851;26;20265;-84
2024/04/23 06:07:55;;;;;;;8.70;6.90;;;;;;;1.50;71.38;95543.94;5322096;26;20237;-83
2024/04/23 06:10:20;;;;;;;9.70;7.17;;;;;;;1.57;71.03;95552.06;5350692;26;20238;-82
2024/04/23 06:12:46;;;;;;;7.90;6.67;;;;;;;1.64;71.13;95554.16;5318888;26;20296;-83
2024/04/23 06:15:11;;;;;;;7.67;6.40;;;;;;;1.13;73.25;95561.47;5330070;26;20286;-84
2024/04/23 06:17:37;;;;;;;12.43;7.03;;;;;;;1.31;72.51;95568.97;5347506;26;20335;-81
2024/04/23 06:20:03;;;;;;;10.60;7.27;;;;;;;1.45;71.85;95568.16;5324079;26;20288;-81
2024/04/23 06:22:30;;;;;;;8.47;6.90;;;;;;;1.58;72.11;95563.94;5332535;26;20331;-84
2024/04/23 06:24:57;;;;;;;7.27;6.17;;;;;;;1.51;72.17;95562.69;5321765;26;20255;-80
2024/04/23 06:27:24;;;;;;;8.93;6.83;;;;;;;1.81;71.58;95568.50;5321772;26;20277;-80
2024/04/23 06:29:50;;;;;;;8.73;6.20;;;;;;;1.25;73.32;95562.50;5304768;26;20285;-79
2024/04/23 06:32:16;;;;;;;7.43;6.57;;;;;;;1.84;72.76;95563.19;5320257;26;20331;-82
2024/04/23 06:34:42;;;;;;;10.03;6.43;;;;;;;1.98;71.45;95568.28;5323976;26;20265;-81
2024/04/23 06:37:07;;;;;;;8.03;6.30;;;;;;;2.42;70.63;95556.16;5337469;26;20289;-80
2024/04/23 06:39:33;;;;;;;8.23;5.73;;;;;;;3.67;66.05;95564.06;5367820;26;20294;-81
2024/04/23 06:41:58;;;;;;;8.73;6.87;;;;;;;5.25;62.17;95566.44;5307035;26;20267;-82
2024/04/23 06:44:24;;;;;;;8.63;4.97;;;;;;;5.48;57.60;95566.44;5327435;26;20246;-82
2024/04/23 06:46:50;;;;;;;6.30;5.63;;;;;;;5.69;56.78;95565.63;5320114;26;20592;-85
2024/04/23 06:49:15;;;;;;;6.33;5.03;;;;;;;6.39;52.97;95561.94;5357776;26;20241;-82
2024/04/23 06:51:40;;;;;;;5.43;4.30;;;;;;;7.16;50.17;95560.94;5353464;26;20257;-83
2024/04/23 06:54:06;;;;;;;6.13;5.40;;;;;;;6.22;52.14;95552.13;5320997;26;20278;-84
2024/04/23 06:56:31;;;;;;;5.23;4.57;;;;;;;6.54;52.16;95552.19;5320001;26;20276;-83
2024/04/23 06:58:56;;;;;;;6.00;5.40;;;;;;;6.58;52.10;95552.72;5366480;26;20241;-82
2024/04/23 07:01:22;;;;;;;5.63;5.00;;;;;;;6.74;51.39;95558.31;5322308;26;20246;-81
2024/04/23 07:03:47;;;;;;;5.57;4.97;;;;;;;6.17;51.99;95557.63;5352637;26;20296;-81
2024/04/23 07:06:12;;;;;;;7.13;4.97;;;;;;;5.48;54.19;95561.28;5355103;26;20598;-83
2024/04/23 07:08:38;;;;;;;7.13;5.07;;;;;;;5.00;55.52;95551.16;5346921;26;20778;-83
2024/04/23 07:11:03;;;;;;;8.50;5.80;;;;;;;4.28;58.40;95548.69;5332014;26;20581;-81
2024/04/23 07:13:28;;;;;;;7.33;5.23;;;;;;;3.91;60.38;95560.72;5320610;26;20262;-83
2024/04/23 07:15:54;;;;;;;7.53;5.80;;;;;;;3.54;61.50;95558.13;5317730;26;20274;-81
2024/04/23 07:18:19;;;;;;;6.77;6.03;;;;;;;2.84;64.00;95561.09;5321546;26;20250;-80
2024/04/23 07:20:44;;;;;;;7.70;6.73;;;;;;;3.40;62.76;95553.09;5319734;26;20271;-81
2024/04/23 07:23:10;;;;;;;7.77;6.03;;;;;;;3.60;61.56;95557.69;5369339;26;20283;-81
2024/04/23 07:25:35;;;;;;;7.33;5.67;;;;;;;3.26;62.32;95551.44;5324367;26;20254;-81
2024/04/23 07:28:00;;;;;;;9.73;6.80;;;;;;;3.77;61.28;95545.44;5322845;26;20278;-82
2024/04/23 07:30:26;;;;;;;8.00;6.03;;;;;;;4.18;60.95;95547.69;5327396;26;20716;-81
2024/04/23 07:32:55;;;;;;;7.53;5.87;;;;;;;3.64;60.51;95538.59;5326259;26;20249;-81
2024/04/23 07:35:24;;;;;;;8.20;6.33;;;;;;;3.64;60.92;95538.59;5327104;26;20251;-82
2024/04/23 07:37:50;;;;;;;6.87;5.93;;;;;;;4.05;58.94;95542.56;5331509;26;20242;-82
2024/04/23 07:40:15;;;;;;;7.30;5.90;;;;;;;3.84;60.07;95544.09;5301997;26;20246;-81
2024/04/23 07:42:41;;;;;;;8.47;5.90;;;;;;;4.31;58.70;95537.34;5330806;26;20255;-83
2024/04/23 07:45:06;;;;;;;9.47;6.00;;;;;;;3.96;58.86;95546.63;5320994;26;20801;-81
2024/04/23 07:47:35;;;;;;;7.50;5.43;;;;;;;4.22;58.33;95547.34;5314801;26;20835;-81
2024/04/23 07:50:01;;;;;;;8.00;5.60;;;;;;;3.65;59.11;95540.22;5333564;26;20238;-83
2024/04/23 07:52:26;;;;;;;9.00;5.90;;;;;;;3.95;57.57;95536.44;5325526;26;20258;-82
2024/04/23 07:54:52;;;;;;;7.10;5.47;;;;;;;3.96;57.90;95546.63;5327026;26;20269;-82
2024/04/23 07:57:17;;;;;;;7.23;5.60;;;;;;;3.79;58.76;95549.53;5330487;26;20273;-83
2024/04/23 07:59:43;;;;;;;7.97;6.00;;;;;;;3.72;60.03;95540.63;5352750;26;20238;-83
2024/04/23 08:02:08;;;;;;;7.40;6.13;;;;;;;4.14;59.94;95541.09;5353945;26;20670;-82
2024/04/23 08:04:33;;;;;;;7.50;5.87;;;;;;;4.45;57.74;95545.72;5320829;26;20808;-83
2024/04/23 08:07:01;;;;;;;16.47;6.60;;;;;;;4.28;58.79;95538.38;5320643;26;20584;-81
2024/04/23 08:09:26;;;;;;;6.53;5.23;;;;;;;4.15;59.50;95541.03;5320668;26;20246;-80
2024/04/23 08:11:52;;;;;;;7.33;5.73;;;;;;;4.07;57.42;95540.75;5331671;26;20272;-81
2024/04/23 08:14:17;;;;;;;8.60;6.10;;;;;;;4.41;57.78;95539.13;5330852;26;20258;-82
2024/04/23 08:16:42;;;;;;;7.87;5.80;;;;;;;4.99;56.77;95532.31;5322230;26;20710;-82
2024/04/23 08:19:08;;;;;;;8.30;6.80;;;;;;;4.38;57.78;95538.56;5328420;26;20241;-84
2024/04/23 08:21:36;;;;;;;8.33;5.97;;;;;;;4.22;59.93;95536.25;5320793;26;20250;-84
2024/04/23 08:24:02;;;;;;;7.37;5.80;;;;;;;4.62;59.07;95536.78;5324674;26;20260;-83
2024/04/23 08:26:27;;;;;;;8.00;5.50;;;;;;;4.58;57.32;95545.63;5324122;26;20798;-83
2024/04/23 08:28:54;;;;;;;6.57;5.37;;;;;;;4.39;56.45;95538.44;5325621;26;20273;-83
2024/04/23 08:31:20;;;;;;;7.50;5.20;;;;;;;4.53;55.58;95543.41;5327057;26;20662;-85
2024/04/23 08:33:49;;;;;;;6.43;5.83;;;;;;;4.55;56.79;95535.59;5345855;26;20300;-85
2024/04/23 08:36:14;;;;;;;7.60;5.70;;;;;;;4.68;54.73;95541.50;5334155;26;20347;-83
2024/04/23 08:38:39;;;;;;;5.87;5.20;;;;;;;5.09;52.88;95533.28;5331167;26;20261;-83
2024/04/23 08:41:05;;;;;;;6.73;4.90;;;;;;;5.30;53.23;95540.31;5324412;26;20249;-84
2024/04/23 08:43:33;;;;;;;6.90;5.40;;;;;;;4.57;54.02;95538.84;5322409;26;20660;-82
2024/04/23 08:45:59;;;;;;;5.53;4.70;;;;;;;4.84;53.95;95536.84;5344884;26;20248;-84
2024/04/23 08:48:27;;;;;;;8.47;5.63;;;;;;;5.10;52.73;95537.50;5325825;26;20286;-82
2024/04/23 08:50:55;;;;;;;6.07;5.47;;;;;;;4.66;54.15;95543.34;5314110;26;20299;-84
2024/04/23 08:53:20;;;;;;;6.43;5.30;;;;;;;5.35;52.81;95535.66;5330302;26;20284;-85
2024/04/23 08:55:47;;;;;;;6.83;4.87;;;;;;;5.07;53.49;95536.91;5322861;26;20339;-85
2024/04/23 08:58:13;;;;;;;5.73;4.87;;;;;;;5.37;52.75;95533.78;5304821;26;20691;-83
2024/04/23 09:00:41;;;;;;;6.03;5.07;;;;;;;5.59;51.21;95527.81;5323150;26;20249;-84
2024/04/23 09:03:12;;;;;;;5.90;5.07;;;;;;;4.91;51.50;95532.06;5343317;26;20285;-84
2024/04/23 09:05:38;;;;;;;7.03;5.37;;;;;;;5.25;51.31;95535.53;5324812;26;20241;-84
2024/04/23 09:08:05;;;;;;;5.73;5.13;;;;;;;4.73;51.39;95533.44;5322889;26;20244;-84
2024/04/23 09:10:31;;;;;;;6.27;4.63;;;;;;;5.07;51.58;95531.75;5321768;26;20253;-84
2024/04/23 09:12:56;;;;;;;5.67;4.67;;;;;;;5.26;50.90;95534.59;5329541;26;20238;-84
2024/04/23 09:15:21;;;;;;;5.53;4.47;;;;;;;5.07;49.76;95532.56;5294831;26;20711;-82
2024/04/23 09:17:57;;;;;;;9.57;4.80;;;;;;;5.53;49.59;95529.09;5325423;26;20247;-83
2024/04/23 09:20:23;;;;;;;5.40;4.90;;;;;;;5.60;49.50;95524.31;5313723;26;20246;-82
2024/04/23 09:22:52;;;;;;;6.17;5.03;;;;;;;5.39;50.34;95526.78;5359470;26;20276;-84
2024/04/23 09:25:18;;;;;;;5.50;4.73;;;;;;;5.72;50.21;95535.41;5352912;26;20286;-83
2024/04/23 09:27:44;;;;;;;6.17;4.63;;;;;;;6.04;49.17;95522.66;5356575;26;20265;-83
2024/04/23 09:30:10;;;;;;;9.70;4.57;;;;;;;6.04;48.56;95528.63;5334873;26;20241;-85
2024/04/23 09:32:35;;;;;;;5.23;4.73;;;;;;;6.37;47.86;95519.97;5325792;26;20300;-84
2024/04/23 09:35:01;;;;;;;7.23;4.97;;;;;;;6.43;47.96;95521.22;5358106;26;20242;-85
2024/04/23 09:37:26;;;;;;;7.47;5.17;;;;;;;5.86;49.33;95525.69;5294886;26;20320;-84
2024/04/23 09:40:00;;;;;;;7.20;5.20;;;;;;;6.15;48.63;95528.59;5343288;26;20777;-83
2024/04/23 09:42:26;;;;;;;5.90;4.93;;;;;;;6.39;48.27;95512.94;5329650;26;20291;-81
2024/04/23 09:44:52;;;;;;;6.60;4.70;;;;;;;6.48;46.83;95512.19;5332833;26;20246;-85
2024/04/23 09:47:23;;;;;;;5.27;4.77;;;;;;;6.61;47.06;95522.34;5335489;26;20260;-85
2024/04/23 09:49:57;;;;;;;6.10;4.70;;;;;;;7.05;47.26;95508.38;5307589;26;20355;-85
2024/04/23 09:52:35;;;;;;;6.50;4.80;;;;;;;6.95;47.08;95514.44;5315633;26;20242;-84
2024/04/23 09:55:01;;;;;;;6.30;4.60;;;;;;;6.92;47.58;95504.38;5303497;26;20249;-85
2024/04/23 09:57:32;;;;;;;5.97;4.50;;;;;;;6.90;47.09;95503.69;5321010;26;20250;-86
2024/04/23 09:59:57;;;;;;;7.07;4.50;;;;;;;6.33;47.17;95507.44;5352326;26;20796;-82
2024/04/23 10:02:27;;;;;;;6.27;4.50;;;;;;;6.98;46.13;95514.16;5362101;26;20249;-87
2024/04/23 10:05:07;;;;;;;5.70;5.07;;;;;;;6.73;46.33;95495.56;5334521;26;20369;-85
2024/04/23 10:07:59;;;;;;;7.37;5.23;;;;;;;7.31;45.88;95492.47;5329453;26;20245;-86
2024/04/23 10:10:42;;;;;;;5.63;4.83;;;;;;;7.03;46.66;95502.53;5354226;26;20237;-85
2024/04/23 10:13:36;;;;;;;5.63;5.03;;;;;;;7.45;45.51;95486.16;5333850;26;20231;-86
2024/04/23 10:16:09;;;;;;;5.93;4.60;;;;;;;8.07;45.04;95493.69;5328320;26;20248;-84
2024/04/23 10:18:42;;;;;;;4.97;4.47;;;;;;;7.37;44.20;95495.38;5329874;26;20238;-83
2024/04/23 10:21:09;;;;;;;5.53;4.43;;;;;;;7.31;44.97;95484.72;5330940;26;20250;-85
2024/04/23 10:23:39;;;;;;;6.47;5.33;;;;;;;8.27;44.12;95489.34;5327731;26;20251;-84
2024/04/23 10:26:15;;;;;;;5.30;4.33;;;;;;;9.03;41.43;95476.53;5334285;26;20245;-83
2024/04/23 10:28:41;;;;;;;5.27;4.43;;;;;;;8.12;42.81;95485.50;5322627;26;20784;-83
2024/04/23 10:31:07;;;;;;;5.17;4.50;;;;;;;8.21;43.56;95485.53;5331502;26;20322;-84
2024/04/23 10:33:32;;;;;;;6.23;5.50;;;;;;;7.04;45.17;95493.84;5331185;26;20666;-84
2024/04/23 10:35:59;;;;;;;7.37;4.80;;;;;;;7.99;44.31;95479.78;5351472;26;20257;-85
2024/04/23 10:38:27;;;;;;;5.17;4.67;;;;;;;8.04;43.24;95477.59;5323616;26;20272;-83
2024/04/23 10:40:53;;;;;;;6.10;4.80;;;;;;;7.97;42.14;95471.34;5330359;26;20238;-85
2024/04/23 10:43:19;;;;;;;5.40;4.40;;;;;;;8.37;42.13;95476.44;5333989;26;20235;-85
2024/04/23 10:45:45;;;;;;;5.40;4.50;;;;;;;8.59;42.08;95472.78;5297117;26;20242;-82
2024/04/23 10:48:10;;;;;;;6.67;4.87;;;;;;;8.59;41.06;95473.59;5344183;26;20281;-86
2024/04/23 10:50:37;;;;;;;6.17;4.00;;;;;;;8.00;42.81;95468.50;5326588;26;20233;-84
2024/04/23 10:53:03;;;;;;;4.77;4.10;;;;;;;7.65;42.89;95469.75;5333495;26;20840;-85
2024/04/23 10:55:29;;;;;;;4.80;3.77;;;;;;;7.03;43.50;95474.13;5326885;26;20279;-82
2024/04/23 10:57:55;;;;;;;6.40;4.50;;;;;;;7.23;43.18;95467.28;5356810;26;20230;-84
2024/04/23 11:00:36;;;;;;;5.83;4.20;;;;;;;7.94;42.14;95465.47;5313772;26;20239;-84
2024/04/23 11:03:02;;;;;;;4.30;3.90;;;;;;;8.39;41.25;95464.19;5327830;26;20355;-83
2024/04/23 11:05:31;;;;;;;5.47;4.73;;;;;;;8.27;42.18;95465.25;5296206;26;20238;-83
2024/04/23 11:08:07;;;;;;;5.80;4.70;;;;;;;8.66;41.11;95459.16;5346922;26;20782;-84
2024/04/23 11:10:52;;;;;;;5.67;3.83;;;;;;;8.15;40.62;95449.06;5289788;26;20311;-83
2024/04/23 11:13:28;;;;;;;6.33;4.10;;;;;;;7.74;41.83;95444.91;5311267;26;20735;-85
2024/04/23 11:16:03;;;;;;;4.90;3.67;;;;;;;7.56;42.65;95445.53;5327965;26;20292;-86
2024/04/23 11:18:38;;;;;;;4.50;3.67;;;;;;;8.02;41.21;95457.06;5328492;26;20245;-85
2024/04/23 11:21:07;;;;;;;3.83;3.40;;;;;;;7.90;42.08;95445.19;5318615;26;20804;-85
2024/04/23 11:23:32;;;;;;;3.93;3.63;;;;;;;8.47;40.67;95443.63;5315024;26;20290;-83
2024/04/23 11:25:58;;;;;;;4.00;3.60;;;;;;;7.54;42.11;95449.19;5307330;26;20654;-84
2024/04/23 11:28:24;;;;;;;9.90;3.60;;;;;;;8.17;40.88;95444.56;5283064;27;20242;-83
2024/04/23 11:30:56;;;;;;;5.10;4.30;;;;;;;8.17;39.07;95442.78;5301740;27;20289;-85
2024/04/23 11:33:23;;;;;;;3.80;3.47;;;;;;;7.94;39.26;95437.03;5319207;26;20243;-85
2024/04/23 11:35:52;;;;;;;4.00;3.57;;;;;;;7.91;40.48;95432.13;5277930;27;20247;-84
2024/04/23 11:38:17;;;;;;;4.63;3.23;;;;;;;8.04;39.21;95433.63;5325615;26;20698;-84
2024/04/23 11:40:44;;;;;;;4.60;3.77;;;;;;;8.16;39.96;95427.41;5308933;26;20356;-85
2024/04/23 11:43:09;;;;;;;4.63;3.30;;;;;;;8.72;38.27;95424.13;5298400;26;20645;-85
2024/04/23 11:45:35;;;;;;;4.80;3.67;;;;;;;8.41;38.30;95424.31;5329808;26;20251;-84